sensor_id;sensor_type;location;lat;lon;timestamp;P1;durP1;ratioP1;P2;durP2;ratioP2
33327;SDS011;19692;52.998;9.116;2023-04-07T00:01:44;18.80;;;14.37;;
33327;SDS011;19692;52.998;9.116;2023-04-07T00:04:10;18.17;;;13.63;;
33327;SDS011;19692;52.998;9.116;2023-04-07T00:06:35;18.57;;;14.07;;
33327;SDS011;19692;52.998;9.116;2023-04-07T00:09:01;16.43;;;13.20;;
33327;SDS011;19692;52.998;9.116;2023-04-07T00:11:27;16.50;;;13.10;;
33327;SDS011;19692;52.998;9.116;2023-04-07T00:13:53;14.87;;;13.23;;
33327;SDS011;19692;52.998;9.116;2023-04-07T00:16:18;16.53;;;13.27;;
33327;SDS011;19692;52.998;9.116;2023-04-07T00:18:44;18.37;;;13.30;;
33327;SDS011;19692;52.998;9.116;2023-04-07T00:21:10;15.40;;;12.73;;
33327;SDS011;19692;52.998;9.116;2023-04-07T00:23:36;17.00;;;12.93;;
33327;SDS011;19692;52.998;9.116;2023-04-07T00:26:02;15.43;;;11.93;;
33327;SDS011;19692;52.998;9.116;2023-04-07T00:28:28;15.83;;;13.30;;
33327;SDS011;19692;52.998;9.116;2023-04-07T00:30:53;14.73;;;11.73;;
33327;SDS011;19692;52.998;9.116;2023-04-07T00:33:19;13.77;;;12.10;;
33327;SDS011;19692;52.998;9.116;2023-04-07T00:35:46;15.30;;;12.37;;
33327;SDS011;19692;52.998;9.116;2023-04-07T00:38:12;13.83;;;11.97;;
33327;SDS011;19692;52.998;9.116;2023-04-07T00:40:37;15.23;;;11.63;;
33327;SDS011;19692;52.998;9.116;2023-04-07T00:43:03;13.50;;;11.70;;
33327;SDS011;19692;52.998;9.116;2023-04-07T00:45:29;15.43;;;11.60;;
33327;SDS011;19692;52.998;9.116;2023-04-07T00:47:56;15.80;;;11.43;;
33327;SDS011;19692;52.998;9.116;2023-04-07T00:50:22;12.83;;;11.13;;
33327;SDS011;19692;52.998;9.116;2023-04-07T00:52:48;15.83;;;11.57;;
33327;SDS011;19692;52.998;9.116;2023-04-07T00:55:14;12.80;;;11.33;;
33327;SDS011;19692;52.998;9.116;2023-04-07T00:57:40;13.93;;;11.57;;
33327;SDS011;19692;52.998;9.116;2023-04-07T01:00:06;12.77;;;11.30;;
33327;SDS011;19692;52.998;9.116;2023-04-07T01:02:37;12.50;;;11.20;;
33327;SDS011;19692;52.998;9.116;2023-04-07T01:05:12;14.67;;;11.87;;
33327;SDS011;19692;52.998;9.116;2023-04-07T01:08:10;15.17;;;11.90;;
33327;SDS011;19692;52.998;9.116;2023-04-07T01:13:39;13.00;;;11.10;;
33327;SDS011;19692;52.998;9.116;2023-04-07T01:16:31;13.90;;;11.20;;
33327;SDS011;19692;52.998;9.116;2023-04-07T01:19:15;14.80;;;10.83;;
33327;SDS011;19692;52.998;9.116;2023-04-07T01:22:01;15.27;;;11.50;;
33327;SDS011;19692;52.998;9.116;2023-04-07T01:30:26;13.93;;;12.50;;
33327;SDS011;19692;52.998;9.116;2023-04-07T01:32:54;15.23;;;11.90;;
33327;SDS011;19692;52.998;9.116;2023-04-07T01:35:23;15.63;;;13.00;;
33327;SDS011;19692;52.998;9.116;2023-04-07T01:37:51;16.00;;;12.10;;
33327;SDS011;19692;52.998;9.116;2023-04-07T01:40:18;16.47;;;11.20;;
33327;SDS011;19692;52.998;9.116;2023-04-07T01:42:46;13.77;;;12.00;;
33327;SDS011;19692;52.998;9.116;2023-04-07T01:45:14;16.13;;;12.53;;
33327;SDS011;19692;52.998;9.116;2023-04-07T01:47:41;15.63;;;12.23;;
33327;SDS011;19692;52.998;9.116;2023-04-07T01:50:09;15.83;;;11.50;;
33327;SDS011;19692;52.998;9.116;2023-04-07T01:52:36;15.40;;;11.83;;
33327;SDS011;19692;52.998;9.116;2023-04-07T01:55:03;14.73;;;11.83;;
33327;SDS011;19692;52.998;9.116;2023-04-07T01:57:30;13.20;;;11.70;;
33327;SDS011;19692;52.998;9.116;2023-04-07T01:59:55;14.53;;;11.80;;
33327;SDS011;19692;52.998;9.116;2023-04-07T02:02:21;13.70;;;11.63;;
33327;SDS011;19692;52.998;9.116;2023-04-07T02:07:19;12.47;;;11.13;;
33327;SDS011;19692;52.998;9.116;2023-04-07T02:09:51;14.67;;;12.30;;
33327;SDS011;19692;52.998;9.116;2023-04-07T02:12:22;17.00;;;12.20;;
33327;SDS011;19692;52.998;9.116;2023-04-07T02:14:51;15.23;;;12.00;;
33327;SDS011;19692;52.998;9.116;2023-04-07T02:17:17;13.13;;;11.77;;
33327;SDS011;19692;52.998;9.116;2023-04-07T02:19:43;13.93;;;11.23;;
33327;SDS011;19692;52.998;9.116;2023-04-07T02:22:10;14.07;;;11.97;;
33327;SDS011;19692;52.998;9.116;2023-04-07T02:24:40;13.83;;;11.80;;
33327;SDS011;19692;52.998;9.116;2023-04-07T02:27:06;14.83;;;12.03;;
33327;SDS011;19692;52.998;9.116;2023-04-07T02:29:32;12.17;;;10.90;;
33327;SDS011;19692;52.998;9.116;2023-04-07T02:31:58;14.23;;;12.67;;
33327;SDS011;19692;52.998;9.116;2023-04-07T02:34:24;13.20;;;11.67;;
33327;SDS011;19692;52.998;9.116;2023-04-07T02:36:50;13.30;;;11.87;;
33327;SDS011;19692;52.998;9.116;2023-04-07T02:39:16;15.00;;;12.20;;
33327;SDS011;19692;52.998;9.116;2023-04-07T02:41:42;16.37;;;12.37;;
33327;SDS011;19692;52.998;9.116;2023-04-07T02:44:07;14.10;;;11.90;;
33327;SDS011;19692;52.998;9.116;2023-04-07T02:46:33;14.47;;;12.47;;
33327;SDS011;19692;52.998;9.116;2023-04-07T02:48:59;15.83;;;12.63;;
33327;SDS011;19692;52.998;9.116;2023-04-07T02:51:25;14.83;;;12.27;;
33327;SDS011;19692;52.998;9.116;2023-04-07T02:53:51;14.83;;;12.77;;
33327;SDS011;19692;52.998;9.116;2023-04-07T02:56:16;15.80;;;12.40;;
33327;SDS011;19692;52.998;9.116;2023-04-07T02:58:42;14.57;;;12.27;;
33327;SDS011;19692;52.998;9.116;2023-04-07T03:01:08;16.00;;;12.90;;
33327;SDS011;19692;52.998;9.116;2023-04-07T03:03:34;15.53;;;11.73;;
33327;SDS011;19692;52.998;9.116;2023-04-07T03:06:00;15.37;;;12.37;;
33327;SDS011;19692;52.998;9.116;2023-04-07T03:08:25;16.60;;;13.60;;
33327;SDS011;19692;52.998;9.116;2023-04-07T03:10:51;14.00;;;12.03;;
33327;SDS011;19692;52.998;9.116;2023-04-07T03:13:17;15.17;;;12.30;;
33327;SDS011;19692;52.998;9.116;2023-04-07T03:15:45;13.83;;;12.30;;
33327;SDS011;19692;52.998;9.116;2023-04-07T03:18:11;14.83;;;12.27;;
33327;SDS011;19692;52.998;9.116;2023-04-07T03:20:37;14.27;;;12.37;;
33327;SDS011;19692;52.998;9.116;2023-04-07T03:23:05;15.33;;;12.73;;
33327;SDS011;19692;52.998;9.116;2023-04-07T03:25:31;15.57;;;12.80;;
33327;SDS011;19692;52.998;9.116;2023-04-07T03:27:57;14.27;;;12.57;;
33327;SDS011;19692;52.998;9.116;2023-04-07T03:30:23;15.57;;;12.60;;
33327;SDS011;19692;52.998;9.116;2023-04-07T03:32:49;14.83;;;11.93;;
33327;SDS011;19692;52.998;9.116;2023-04-07T03:35:15;15.63;;;11.77;;
33327;SDS011;19692;52.998;9.116;2023-04-07T03:37:41;15.23;;;12.30;;
33327;SDS011;19692;52.998;9.116;2023-04-07T03:40:07;14.43;;;12.10;;
33327;SDS011;19692;52.998;9.116;2023-04-07T03:42:33;14.27;;;12.80;;
33327;SDS011;19692;52.998;9.116;2023-04-07T03:44:59;17.37;;;13.23;;
33327;SDS011;19692;52.998;9.116;2023-04-07T03:47:25;15.33;;;13.33;;
33327;SDS011;19692;52.998;9.116;2023-04-07T03:49:50;15.27;;;13.07;;
33327;SDS011;19692;52.998;9.116;2023-04-07T03:52:16;14.10;;;12.57;;
33327;SDS011;19692;52.998;9.116;2023-04-07T03:54:42;16.77;;;13.53;;
33327;SDS011;19692;52.998;9.116;2023-04-07T03:57:08;16.57;;;12.93;;
33327;SDS011;19692;52.998;9.116;2023-04-07T03:59:34;15.30;;;12.73;;
33327;SDS011;19692;52.998;9.116;2023-04-07T04:02:00;14.63;;;13.03;;
33327;SDS011;19692;52.998;9.116;2023-04-07T04:04:25;16.60;;;12.67;;
33327;SDS011;19692;52.998;9.116;2023-04-07T04:06:51;15.20;;;12.63;;
33327;SDS011;19692;52.998;9.116;2023-04-07T04:09:17;14.80;;;13.00;;
33327;SDS011;19692;52.998;9.116;2023-04-07T04:11:43;18.33;;;13.23;;
33327;SDS011;19692;52.998;9.116;2023-04-07T04:14:08;14.87;;;13.27;;
33327;SDS011;19692;52.998;9.116;2023-04-07T04:16:34;15.40;;;12.80;;
33327;SDS011;19692;52.998;9.116;2023-04-07T04:19:00;16.83;;;13.50;;
33327;SDS011;19692;52.998;9.116;2023-04-07T04:21:26;16.20;;;13.67;;
33327;SDS011;19692;52.998;9.116;2023-04-07T04:23:52;18.10;;;12.43;;
33327;SDS011;19692;52.998;9.116;2023-04-07T04:26:18;16.63;;;13.40;;
33327;SDS011;19692;52.998;9.116;2023-04-07T04:28:44;16.80;;;14.00;;
33327;SDS011;19692;52.998;9.116;2023-04-07T04:31:10;20.17;;;14.47;;
33327;SDS011;19692;52.998;9.116;2023-04-07T04:33:36;18.17;;;13.70;;
33327;SDS011;19692;52.998;9.116;2023-04-07T04:36:01;16.37;;;14.10;;
33327;SDS011;19692;52.998;9.116;2023-04-07T04:38:29;16.97;;;13.90;;
33327;SDS011;19692;52.998;9.116;2023-04-07T04:40:54;15.43;;;13.03;;
33327;SDS011;19692;52.998;9.116;2023-04-07T04:43:20;16.20;;;13.40;;
33327;SDS011;19692;52.998;9.116;2023-04-07T04:45:46;14.40;;;12.27;;
33327;SDS011;19692;52.998;9.116;2023-04-07T04:48:12;14.73;;;12.90;;
33327;SDS011;19692;52.998;9.116;2023-04-07T04:50:37;16.63;;;13.60;;
33327;SDS011;19692;52.998;9.116;2023-04-07T04:53:03;17.37;;;13.90;;
33327;SDS011;19692;52.998;9.116;2023-04-07T04:55:29;16.77;;;12.77;;
33327;SDS011;19692;52.998;9.116;2023-04-07T04:57:55;15.67;;;13.47;;
33327;SDS011;19692;52.998;9.116;2023-04-07T05:00:20;14.53;;;12.90;;
33327;SDS011;19692;52.998;9.116;2023-04-07T05:02:46;15.33;;;12.67;;
33327;SDS011;19692;52.998;9.116;2023-04-07T05:05:12;16.27;;;13.47;;
33327;SDS011;19692;52.998;9.116;2023-04-07T05:07:38;17.47;;;13.53;;
33327;SDS011;19692;52.998;9.116;2023-04-07T05:10:05;15.20;;;12.93;;
33327;SDS011;19692;52.998;9.116;2023-04-07T05:12:33;15.80;;;13.27;;
33327;SDS011;19692;52.998;9.116;2023-04-07T05:14:59;15.30;;;13.03;;
33327;SDS011;19692;52.998;9.116;2023-04-07T05:17:25;17.00;;;13.13;;
33327;SDS011;19692;52.998;9.116;2023-04-07T05:19:50;16.67;;;13.47;;
33327;SDS011;19692;52.998;9.116;2023-04-07T05:22:16;19.77;;;14.23;;
33327;SDS011;19692;52.998;9.116;2023-04-07T05:24:42;16.43;;;12.83;;
33327;SDS011;19692;52.998;9.116;2023-04-07T05:27:08;15.17;;;13.20;;
33327;SDS011;19692;52.998;9.116;2023-04-07T05:29:33;16.37;;;13.63;;
33327;SDS011;19692;52.998;9.116;2023-04-07T05:31:59;16.60;;;13.30;;
33327;SDS011;19692;52.998;9.116;2023-04-07T05:34:25;15.73;;;12.97;;
33327;SDS011;19692;52.998;9.116;2023-04-07T05:36:51;17.13;;;13.40;;
33327;SDS011;19692;52.998;9.116;2023-04-07T05:39:17;15.87;;;12.90;;
33327;SDS011;19692;52.998;9.116;2023-04-07T05:41:43;15.60;;;13.67;;
33327;SDS011;19692;52.998;9.116;2023-04-07T05:44:09;14.47;;;12.23;;
33327;SDS011;19692;52.998;9.116;2023-04-07T05:46:35;15.73;;;13.27;;
33327;SDS011;19692;52.998;9.116;2023-04-07T05:49:00;16.53;;;13.13;;
33327;SDS011;19692;52.998;9.116;2023-04-07T05:51:26;14.60;;;12.50;;
33327;SDS011;19692;52.998;9.116;2023-04-07T05:53:52;15.23;;;12.63;;
33327;SDS011;19692;52.998;9.116;2023-04-07T05:56:18;17.90;;;12.73;;
33327;SDS011;19692;52.998;9.116;2023-04-07T05:58:43;15.17;;;13.10;;
33327;SDS011;19692;52.998;9.116;2023-04-07T06:01:10;14.57;;;13.07;;
33327;SDS011;19692;52.998;9.116;2023-04-07T06:03:35;16.23;;;14.53;;
33327;SDS011;19692;52.998;9.116;2023-04-07T06:06:01;14.70;;;12.27;;
33327;SDS011;19692;52.998;9.116;2023-04-07T06:08:27;14.80;;;12.13;;
33327;SDS011;19692;52.998;9.116;2023-04-07T06:10:53;15.60;;;12.17;;
33327;SDS011;19692;52.998;9.116;2023-04-07T06:13:18;15.93;;;12.60;;
33327;SDS011;19692;52.998;9.116;2023-04-07T06:15:44;13.40;;;11.90;;
33327;SDS011;19692;52.998;9.116;2023-04-07T06:18:10;14.67;;;12.00;;
33327;SDS011;19692;52.998;9.116;2023-04-07T06:20:36;13.10;;;11.40;;
33327;SDS011;19692;52.998;9.116;2023-04-07T06:23:01;13.20;;;11.20;;
33327;SDS011;19692;52.998;9.116;2023-04-07T06:25:27;17.00;;;11.97;;
33327;SDS011;19692;52.998;9.116;2023-04-07T06:27:53;14.43;;;12.47;;
33327;SDS011;19692;52.998;9.116;2023-04-07T06:30:20;13.87;;;11.53;;
33327;SDS011;19692;52.998;9.116;2023-04-07T06:32:45;13.40;;;11.60;;
33327;SDS011;19692;52.998;9.116;2023-04-07T06:35:11;15.07;;;11.80;;
33327;SDS011;19692;52.998;9.116;2023-04-07T06:37:37;14.63;;;11.77;;
33327;SDS011;19692;52.998;9.116;2023-04-07T06:40:03;15.33;;;11.97;;
33327;SDS011;19692;52.998;9.116;2023-04-07T06:42:31;12.97;;;11.63;;
33327;SDS011;19692;52.998;9.116;2023-04-07T06:44:57;12.73;;;11.43;;
33327;SDS011;19692;52.998;9.116;2023-04-07T06:47:23;14.17;;;11.50;;
33327;SDS011;19692;52.998;9.116;2023-04-07T06:49:48;12.50;;;11.20;;
33327;SDS011;19692;52.998;9.116;2023-04-07T06:52:14;12.57;;;11.20;;
33327;SDS011;19692;52.998;9.116;2023-04-07T06:54:40;13.60;;;11.17;;
33327;SDS011;19692;52.998;9.116;2023-04-07T06:57:06;12.23;;;10.43;;
33327;SDS011;19692;52.998;9.116;2023-04-07T06:59:36;14.17;;;10.57;;
33327;SDS011;19692;52.998;9.116;2023-04-07T07:02:04;11.40;;;10.20;;
33327;SDS011;19692;52.998;9.116;2023-04-07T07:04:31;11.33;;;10.13;;
33327;SDS011;19692;52.998;9.116;2023-04-07T07:06:58;13.80;;;11.13;;
33327;SDS011;19692;52.998;9.116;2023-04-07T07:09:25;13.63;;;10.40;;
33327;SDS011;19692;52.998;9.116;2023-04-07T07:11:51;12.53;;;11.23;;
33327;SDS011;19692;52.998;9.116;2023-04-07T07:14:17;12.60;;;10.60;;
33327;SDS011;19692;52.998;9.116;2023-04-07T07:16:43;12.70;;;10.47;;
33327;SDS011;19692;52.998;9.116;2023-04-07T07:19:09;11.70;;;9.83;;
33327;SDS011;19692;52.998;9.116;2023-04-07T07:21:35;12.33;;;11.03;;
33327;SDS011;19692;52.998;9.116;2023-04-07T07:24:01;11.87;;;10.07;;
33327;SDS011;19692;52.998;9.116;2023-04-07T07:26:26;11.87;;;10.03;;
33327;SDS011;19692;52.998;9.116;2023-04-07T07:28:52;11.17;;;10.00;;
33327;SDS011;19692;52.998;9.116;2023-04-07T07:31:18;11.50;;;10.07;;
33327;SDS011;19692;52.998;9.116;2023-04-07T07:33:43;10.20;;;9.20;;
33327;SDS011;19692;52.998;9.116;2023-04-07T07:36:10;10.80;;;9.70;;
33327;SDS011;19692;52.998;9.116;2023-04-07T07:38:36;11.00;;;9.47;;
33327;SDS011;19692;52.998;9.116;2023-04-07T07:41:05;11.20;;;10.10;;
33327;SDS011;19692;52.998;9.116;2023-04-07T07:43:31;10.60;;;9.50;;
33327;SDS011;19692;52.998;9.116;2023-04-07T07:45:57;10.87;;;9.67;;
33327;SDS011;19692;52.998;9.116;2023-04-07T07:48:23;11.27;;;10.13;;
33327;SDS011;19692;52.998;9.116;2023-04-07T07:50:49;12.07;;;9.73;;
33327;SDS011;19692;52.998;9.116;2023-04-07T07:53:16;10.43;;;9.33;;
33327;SDS011;19692;52.998;9.116;2023-04-07T07:55:42;11.03;;;9.93;;
33327;SDS011;19692;52.998;9.116;2023-04-07T07:58:07;13.07;;;11.27;;
33327;SDS011;19692;52.998;9.116;2023-04-07T08:00:33;11.87;;;10.67;;
33327;SDS011;19692;52.998;9.116;2023-04-07T08:02:59;12.30;;;10.67;;
33327;SDS011;19692;52.998;9.116;2023-04-07T08:05:25;11.17;;;10.13;;
33327;SDS011;19692;52.998;9.116;2023-04-07T08:07:51;10.70;;;9.60;;
33327;SDS011;19692;52.998;9.116;2023-04-07T08:10:17;11.30;;;10.10;;
33327;SDS011;19692;52.998;9.116;2023-04-07T08:12:44;10.60;;;9.50;;
33327;SDS011;19692;52.998;9.116;2023-04-07T08:15:10;12.10;;;10.13;;
33327;SDS011;19692;52.998;9.116;2023-04-07T08:17:36;11.37;;;9.20;;
33327;SDS011;19692;52.998;9.116;2023-04-07T08:20:03;10.03;;;9.03;;
33327;SDS011;19692;52.998;9.116;2023-04-07T08:22:30;10.07;;;8.70;;
33327;SDS011;19692;52.998;9.116;2023-04-07T08:24:56;10.80;;;9.70;;
33327;SDS011;19692;52.998;9.116;2023-04-07T08:27:22;10.27;;;9.03;;
33327;SDS011;19692;52.998;9.116;2023-04-07T08:29:50;11.93;;;9.20;;
33327;SDS011;19692;52.998;9.116;2023-04-07T08:33:00;10.77;;;9.20;;
33327;SDS011;19692;52.998;9.116;2023-04-07T08:35:20;10.20;;;9.13;;
33327;SDS011;19692;52.998;9.116;2023-04-07T08:37:46;10.70;;;8.60;;
33327;SDS011;19692;52.998;9.116;2023-04-07T08:40:13;10.03;;;9.13;;
33327;SDS011;19692;52.998;9.116;2023-04-07T08:42:40;10.13;;;9.07;;
33327;SDS011;19692;52.998;9.116;2023-04-07T08:45:10;9.83;;;8.77;;
33327;SDS011;19692;52.998;9.116;2023-04-07T08:47:37;9.77;;;8.50;;
33327;SDS011;19692;52.998;9.116;2023-04-07T08:50:08;9.67;;;8.47;;
33327;SDS011;19692;52.998;9.116;2023-04-07T08:52:40;10.10;;;8.60;;
33327;SDS011;19692;52.998;9.116;2023-04-07T08:55:15;9.03;;;8.00;;
33327;SDS011;19692;52.998;9.116;2023-04-07T08:57:41;9.83;;;8.90;;
33327;SDS011;19692;52.998;9.116;2023-04-07T09:00:07;9.40;;;8.07;;
33327;SDS011;19692;52.998;9.116;2023-04-07T09:02:38;10.47;;;9.37;;
33327;SDS011;19692;52.998;9.116;2023-04-07T09:05:07;11.97;;;9.27;;
33327;SDS011;19692;52.998;9.116;2023-04-07T09:07:34;9.33;;;8.40;;
33327;SDS011;19692;52.998;9.116;2023-04-07T09:10:02;10.20;;;9.10;;
33327;SDS011;19692;52.998;9.116;2023-04-07T09:12:30;9.67;;;8.77;;
33327;SDS011;19692;52.998;9.116;2023-04-07T09:14:56;9.73;;;8.73;;
33327;SDS011;19692;52.998;9.116;2023-04-07T09:17:24;11.47;;;8.57;;
33327;SDS011;19692;52.998;9.116;2023-04-07T09:19:51;9.20;;;8.20;;
33327;SDS011;19692;52.998;9.116;2023-04-07T09:22:42;10.53;;;8.43;;
33327;SDS011;19692;52.998;9.116;2023-04-07T09:27:40;14.53;;;8.77;;
33327;SDS011;19692;52.998;9.116;2023-04-07T09:30:24;9.70;;;8.13;;
33327;SDS011;19692;52.998;9.116;2023-04-07T09:32:50;10.10;;;8.57;;
33327;SDS011;19692;52.998;9.116;2023-04-07T09:35:16;10.27;;;8.20;;
33327;SDS011;19692;52.998;9.116;2023-04-07T09:37:42;10.37;;;8.37;;
33327;SDS011;19692;52.998;9.116;2023-04-07T09:40:08;9.63;;;8.23;;
33327;SDS011;19692;52.998;9.116;2023-04-07T09:42:34;9.87;;;8.47;;
33327;SDS011;19692;52.998;9.116;2023-04-07T09:45:10;9.07;;;8.17;;
33327;SDS011;19692;52.998;9.116;2023-04-07T09:47:36;9.23;;;8.20;;
33327;SDS011;19692;52.998;9.116;2023-04-07T09:50:03;9.30;;;7.80;;
33327;SDS011;19692;52.998;9.116;2023-04-07T09:52:50;11.40;;;8.27;;
33327;SDS011;19692;52.998;9.116;2023-04-07T09:55:18;9.37;;;8.37;;
33327;SDS011;19692;52.998;9.116;2023-04-07T09:57:47;9.43;;;8.53;;
33327;SDS011;19692;52.998;9.116;2023-04-07T10:00:17;9.50;;;8.23;;
33327;SDS011;19692;52.998;9.116;2023-04-07T10:02:43;10.33;;;8.47;;
33327;SDS011;19692;52.998;9.116;2023-04-07T10:05:09;9.27;;;8.03;;
33327;SDS011;19692;52.998;9.116;2023-04-07T10:07:36;8.80;;;7.90;;
33327;SDS011;19692;52.998;9.116;2023-04-07T10:10:02;10.40;;;7.83;;
33327;SDS011;19692;52.998;9.116;2023-04-07T10:12:29;9.27;;;8.13;;
33327;SDS011;19692;52.998;9.116;2023-04-07T10:14:57;8.80;;;7.90;;
33327;SDS011;19692;52.998;9.116;2023-04-07T10:17:26;8.83;;;7.97;;
33327;SDS011;19692;52.998;9.116;2023-04-07T10:19:53;10.13;;;8.90;;
33327;SDS011;19692;52.998;9.116;2023-04-07T10:22:22;10.67;;;9.30;;
33327;SDS011;19692;52.998;9.116;2023-04-07T10:24:58;9.67;;;8.10;;
33327;SDS011;19692;52.998;9.116;2023-04-07T10:27:33;9.77;;;8.87;;
33327;SDS011;19692;52.998;9.116;2023-04-07T10:30:05;8.67;;;7.70;;
33327;SDS011;19692;52.998;9.116;2023-04-07T10:32:48;9.13;;;7.97;;
33327;SDS011;19692;52.998;9.116;2023-04-07T10:35:16;9.27;;;7.83;;
33327;SDS011;19692;52.998;9.116;2023-04-07T10:40:40;8.47;;;7.57;;
33327;SDS011;19692;52.998;9.116;2023-04-07T10:43:07;9.30;;;8.33;;
33327;SDS011;19692;52.998;9.116;2023-04-07T10:48:16;10.40;;;9.30;;
33327;SDS011;19692;52.998;9.116;2023-04-07T10:51:29;9.03;;;7.70;;
33327;SDS011;19692;52.998;9.116;2023-04-07T10:53:30;9.83;;;8.20;;
33327;SDS011;19692;52.998;9.116;2023-04-07T10:55:56;9.00;;;8.10;;
33327;SDS011;19692;52.998;9.116;2023-04-07T10:58:23;10.50;;;9.40;;
33327;SDS011;19692;52.998;9.116;2023-04-07T11:03:27;9.87;;;8.87;;
33327;SDS011;19692;52.998;9.116;2023-04-07T11:06:08;9.07;;;7.57;;
33327;SDS011;19692;52.998;9.116;2023-04-07T11:11:05;9.17;;;8.00;;
33327;SDS011;19692;52.998;9.116;2023-04-07T11:16:12;10.73;;;8.00;;
33327;SDS011;19692;52.998;9.116;2023-04-07T11:18:39;9.60;;;8.17;;
33327;SDS011;19692;52.998;9.116;2023-04-07T11:21:06;8.50;;;7.70;;
33327;SDS011;19692;52.998;9.116;2023-04-07T11:23:39;10.43;;;7.87;;
33327;SDS011;19692;52.998;9.116;2023-04-07T11:26:12;9.87;;;8.10;;
33327;SDS011;19692;52.998;9.116;2023-04-07T11:28:45;9.47;;;7.57;;
33327;SDS011;19692;52.998;9.116;2023-04-07T11:31:26;9.43;;;8.43;;
33327;SDS011;19692;52.998;9.116;2023-04-07T11:33:54;14.00;;;8.03;;
33327;SDS011;19692;52.998;9.116;2023-04-07T11:36:29;10.37;;;8.80;;
33327;SDS011;19692;52.998;9.116;2023-04-07T11:39:01;9.20;;;8.23;;
33327;SDS011;19692;52.998;9.116;2023-04-07T11:41:28;8.90;;;7.90;;
33327;SDS011;19692;52.998;9.116;2023-04-07T11:44:03;10.10;;;8.67;;
33327;SDS011;19692;52.998;9.116;2023-04-07T11:46:51;11.27;;;9.43;;
33327;SDS011;19692;52.998;9.116;2023-04-07T11:49:26;10.00;;;8.87;;
33327;SDS011;19692;52.998;9.116;2023-04-07T11:52:05;10.63;;;8.43;;
33327;SDS011;19692;52.998;9.116;2023-04-07T11:55:04;10.90;;;8.90;;
33327;SDS011;19692;52.998;9.116;2023-04-07T11:57:27;10.50;;;9.20;;
33327;SDS011;19692;52.998;9.116;2023-04-07T12:00:06;9.37;;;8.40;;
33327;SDS011;19692;52.998;9.116;2023-04-07T12:02:36;11.17;;;8.50;;
33327;SDS011;19692;52.998;9.116;2023-04-07T12:05:02;9.60;;;8.60;;
33327;SDS011;19692;52.998;9.116;2023-04-07T12:07:29;10.00;;;8.43;;
33327;SDS011;19692;52.998;9.116;2023-04-07T12:09:55;10.97;;;9.17;;
33327;SDS011;19692;52.998;9.116;2023-04-07T12:12:24;10.40;;;8.47;;
33327;SDS011;19692;52.998;9.116;2023-04-07T12:14:54;9.20;;;8.17;;
33327;SDS011;19692;52.998;9.116;2023-04-07T12:17:21;10.33;;;8.57;;
33327;SDS011;19692;52.998;9.116;2023-04-07T12:19:48;13.53;;;9.53;;
33327;SDS011;19692;52.998;9.116;2023-04-07T12:22:14;9.67;;;8.67;;
33327;SDS011;19692;52.998;9.116;2023-04-07T12:24:40;10.50;;;8.83;;
33327;SDS011;19692;52.998;9.116;2023-04-07T12:27:06;10.70;;;8.67;;
33327;SDS011;19692;52.998;9.116;2023-04-07T12:29:32;9.43;;;8.43;;
33327;SDS011;19692;52.998;9.116;2023-04-07T12:31:58;8.63;;;7.73;;
33327;SDS011;19692;52.998;9.116;2023-04-07T12:34:24;9.40;;;8.30;;
33327;SDS011;19692;52.998;9.116;2023-04-07T12:36:51;10.97;;;7.97;;
33327;SDS011;19692;52.998;9.116;2023-04-07T12:39:17;9.40;;;8.20;;
33327;SDS011;19692;52.998;9.116;2023-04-07T12:41:43;9.93;;;8.67;;
33327;SDS011;19692;52.998;9.116;2023-04-07T12:44:13;10.87;;;8.17;;
33327;SDS011;19692;52.998;9.116;2023-04-07T12:46:40;11.83;;;9.23;;
33327;SDS011;19692;52.998;9.116;2023-04-07T12:49:07;9.57;;;8.03;;
33327;SDS011;19692;52.998;9.116;2023-04-07T12:51:33;9.40;;;8.37;;
33327;SDS011;19692;52.998;9.116;2023-04-07T12:53:59;8.50;;;7.67;;
33327;SDS011;19692;52.998;9.116;2023-04-07T12:56:25;9.23;;;8.00;;
33327;SDS011;19692;52.998;9.116;2023-04-07T12:58:52;8.83;;;7.97;;
33327;SDS011;19692;52.998;9.116;2023-04-07T13:01:18;8.93;;;8.03;;
33327;SDS011;19692;52.998;9.116;2023-04-07T13:03:45;8.27;;;7.33;;
33327;SDS011;19692;52.998;9.116;2023-04-07T13:06:11;9.10;;;7.80;;
33327;SDS011;19692;52.998;9.116;2023-04-07T13:08:37;8.47;;;7.60;;
33327;SDS011;19692;52.998;9.116;2023-04-07T13:11:04;8.90;;;7.57;;
33327;SDS011;19692;52.998;9.116;2023-04-07T13:13:30;9.40;;;7.60;;
33327;SDS011;19692;52.998;9.116;2023-04-07T13:15:55;8.17;;;7.37;;
33327;SDS011;19692;52.998;9.116;2023-04-07T13:18:22;8.37;;;7.43;;
33327;SDS011;19692;52.998;9.116;2023-04-07T13:20:47;8.53;;;7.43;;
33327;SDS011;19692;52.998;9.116;2023-04-07T13:23:13;8.73;;;7.23;;
33327;SDS011;19692;52.998;9.116;2023-04-07T13:25:39;11.60;;;10.20;;
33327;SDS011;19692;52.998;9.116;2023-04-07T13:28:05;9.13;;;8.33;;
33327;SDS011;19692;52.998;9.116;2023-04-07T13:30:31;8.50;;;6.87;;
33327;SDS011;19692;52.998;9.116;2023-04-07T13:32:57;9.50;;;7.87;;
33327;SDS011;19692;52.998;9.116;2023-04-07T13:35:23;8.13;;;7.33;;
33327;SDS011;19692;52.998;9.116;2023-04-07T13:37:49;8.40;;;7.17;;
33327;SDS011;19692;52.998;9.116;2023-04-07T13:40:14;8.20;;;6.60;;
33327;SDS011;19692;52.998;9.116;2023-04-07T13:42:41;7.23;;;6.53;;
33327;SDS011;19692;52.998;9.116;2023-04-07T13:45:07;7.87;;;6.50;;
33327;SDS011;19692;52.998;9.116;2023-04-07T13:47:33;10.07;;;7.40;;
33327;SDS011;19692;52.998;9.116;2023-04-07T13:50:00;7.50;;;6.20;;
33327;SDS011;19692;52.998;9.116;2023-04-07T13:52:27;9.03;;;6.37;;
33327;SDS011;19692;52.998;9.116;2023-04-07T13:54:53;6.73;;;6.00;;
33327;SDS011;19692;52.998;9.116;2023-04-07T13:57:19;7.83;;;7.00;;
33327;SDS011;19692;52.998;9.116;2023-04-07T13:59:50;6.90;;;6.20;;
33327;SDS011;19692;52.998;9.116;2023-04-07T14:02:16;7.57;;;6.20;;
33327;SDS011;19692;52.998;9.116;2023-04-07T14:04:43;6.90;;;6.13;;
33327;SDS011;19692;52.998;9.116;2023-04-07T14:07:09;7.53;;;5.67;;
33327;SDS011;19692;52.998;9.116;2023-04-07T14:09:35;9.50;;;6.07;;
33327;SDS011;19692;52.998;9.116;2023-04-07T14:12:01;7.90;;;5.47;;
33327;SDS011;19692;52.998;9.116;2023-04-07T14:14:28;5.60;;;5.10;;
33327;SDS011;19692;52.998;9.116;2023-04-07T14:16:54;6.83;;;6.00;;
33327;SDS011;19692;52.998;9.116;2023-04-07T14:19:21;7.50;;;6.83;;
33327;SDS011;19692;52.998;9.116;2023-04-07T14:21:47;6.40;;;5.10;;
33327;SDS011;19692;52.998;9.116;2023-04-07T14:24:17;5.37;;;4.70;;
33327;SDS011;19692;52.998;9.116;2023-04-07T14:26:43;5.83;;;5.23;;
33327;SDS011;19692;52.998;9.116;2023-04-07T14:29:13;6.13;;;5.30;;
33327;SDS011;19692;52.998;9.116;2023-04-07T14:31:39;5.10;;;4.60;;
33327;SDS011;19692;52.998;9.116;2023-04-07T14:34:05;6.67;;;5.10;;
33327;SDS011;19692;52.998;9.116;2023-04-07T14:36:32;6.03;;;5.10;;
33327;SDS011;19692;52.998;9.116;2023-04-07T14:38:58;5.90;;;4.73;;
33327;SDS011;19692;52.998;9.116;2023-04-07T14:41:25;5.93;;;4.80;;
33327;SDS011;19692;52.998;9.116;2023-04-07T14:43:51;5.27;;;4.70;;
33327;SDS011;19692;52.998;9.116;2023-04-07T14:46:23;7.17;;;4.73;;
33327;SDS011;19692;52.998;9.116;2023-04-07T14:48:51;5.30;;;4.80;;
33327;SDS011;19692;52.998;9.116;2023-04-07T14:51:17;6.27;;;5.03;;
33327;SDS011;19692;52.998;9.116;2023-04-07T14:53:43;5.53;;;4.90;;
33327;SDS011;19692;52.998;9.116;2023-04-07T14:56:10;4.97;;;4.23;;
33327;SDS011;19692;52.998;9.116;2023-04-07T14:58:37;4.73;;;4.17;;
33327;SDS011;19692;52.998;9.116;2023-04-07T15:01:04;4.90;;;4.40;;